DEALR ETNL-ETNL
Flight info
| Callsign | DEALR |
|---|---|
| Flight time | 1h 20m |
| Altitude | 30000 |
| Route | NL109/09 NL109 DCT WISMA DCT HAMFO DCT NDO VFR DCT WTM DCT TR201VFRSTAY1/0030 DCT NDOIFR DCT HAMFO DCT WISMA DCT LAG |
| Aircraft | EUFI/M-GIRLTUYZ/LB1 |
Departure
| Time | 2026-05-06 18:29 |
|---|---|
| Airport | Rostock-Laage Airport (ETNL) |
Arrival
| Time | 2026-05-06 19:50 |
|---|---|
| Airport | Rostock-Laage Airport (ETNL) |
| Time | Latitude | Longitude | Altitude | Speed | Heading |
|---|---|---|---|---|---|
| 2026-05-06 18:29 | 53.90782 | 12.40764 | 5450 ft | 356 kts | 104° |
| 2026-05-06 18:29 | 53.89636 | 12.44522 | 6797 ft | 377 kts | 131° |
| 2026-05-06 18:29 | 53.87388 | 12.46913 | 8673 ft | 397 kts | 163° |
| 2026-05-06 18:30 | 53.84678 | 12.46897 | 10264 ft | 405 kts | 198° |
| 2026-05-06 18:30 | 53.82389 | 12.44494 | 12051 ft | 393 kts | 228° |
| 2026-05-06 18:30 | 53.81038 | 12.40547 | 13890 ft | 396 kts | 255° |
| 2026-05-06 18:30 | 53.80880 | 12.35824 | 15517 ft | 413 kts | 272° |
| 2026-05-06 18:31 | 53.81017 | 12.30980 | 17426 ft | 410 kts | 271° |
| 2026-05-06 18:31 | 53.81184 | 12.26180 | 19310 ft | 408 kts | 271° |
| 2026-05-06 18:31 | 53.81299 | 12.21408 | 21172 ft | 404 kts | 270° |
| 2026-05-06 18:31 | 53.81435 | 12.16676 | 23141 ft | 401 kts | 271° |
| 2026-05-06 18:32 | 53.81607 | 12.11912 | 24694 ft | 414 kts | 271° |
| 2026-05-06 18:32 | 53.81744 | 12.07082 | 25418 ft | 411 kts | 270° |
| 2026-05-06 18:32 | 53.81864 | 12.01803 | 25924 ft | 501 kts | 271° |
| 2026-05-06 18:32 | 53.82024 | 11.95777 | 25930 ft | 505 kts | 271° |
| 2026-05-06 18:33 | 53.82194 | 11.89861 | 25893 ft | 503 kts | 271° |
| 2026-05-06 18:33 | 53.82324 | 11.83955 | 25907 ft | 502 kts | 270° |
| 2026-05-06 18:33 | 53.82415 | 11.78050 | 25915 ft | 502 kts | 269° |
| 2026-05-06 18:33 | 53.82486 | 11.72151 | 25911 ft | 501 kts | 269° |
| 2026-05-06 18:34 | 53.82548 | 11.66264 | 25906 ft | 500 kts | 270° |
| 2026-05-06 18:34 | 53.82603 | 11.60375 | 25905 ft | 501 kts | 270° |
| 2026-05-06 18:34 | 53.82638 | 11.54475 | 25910 ft | 500 kts | 267° |
| 2026-05-06 18:34 | 53.82355 | 11.48641 | 25911 ft | 497 kts | 262° |
| 2026-05-06 18:35 | 53.81960 | 11.42815 | 25908 ft | 499 kts | 262° |
| 2026-05-06 18:35 | 53.81379 | 11.37047 | 25909 ft | 498 kts | 257° |
| 2026-05-06 18:35 | 53.80718 | 11.31294 | 25903 ft | 498 kts | 259° |
| 2026-05-06 18:35 | 53.80158 | 11.25517 | 25900 ft | 497 kts | 259° |
| 2026-05-06 18:36 | 53.79524 | 11.19755 | 25909 ft | 499 kts | 259° |
| 2026-05-06 18:36 | 53.78911 | 11.13974 | 25912 ft | 498 kts | 259° |
| 2026-05-06 18:36 | 53.78304 | 11.08219 | 25916 ft | 497 kts | 259° |
| 2026-05-06 18:36 | 53.77676 | 11.02472 | 25919 ft | 498 kts | 259° |
| 2026-05-06 18:37 | 53.77060 | 10.96728 | 25921 ft | 494 kts | 259° |
| 2026-05-06 18:37 | 53.76653 | 10.92940 | 25924 ft | 493 kts | 259° |
| 2026-05-06 18:37 | 53.75815 | 10.85310 | 25926 ft | 495 kts | 259° |
| 2026-05-06 18:37 | 53.75190 | 10.79578 | 25925 ft | 496 kts | 259° |
| 2026-05-06 18:38 | 53.74563 | 10.73863 | 25927 ft | 494 kts | 259° |
| 2026-05-06 18:38 | 53.73930 | 10.68158 | 25927 ft | 495 kts | 259° |
| 2026-05-06 18:38 | 53.73294 | 10.62425 | 25928 ft | 496 kts | 259° |
| 2026-05-06 18:38 | 53.72657 | 10.56712 | 25925 ft | 495 kts | 259° |
| 2026-05-06 18:39 | 53.72016 | 10.51006 | 25923 ft | 495 kts | 259° |
| 2026-05-06 18:39 | 53.71373 | 10.45287 | 25922 ft | 497 kts | 259° |
| 2026-05-06 18:39 | 53.70733 | 10.39611 | 25918 ft | 494 kts | 258° |
| 2026-05-06 18:40 | 53.69431 | 10.28191 | 25902 ft | 496 kts | 258° |
| 2026-05-06 18:40 | 53.68788 | 10.22489 | 25895 ft | 495 kts | 260° |
| 2026-05-06 18:40 | 53.68557 | 10.16680 | 25146 ft | 497 kts | 273° |
| 2026-05-06 18:40 | 53.68948 | 10.10857 | 24500 ft | 500 kts | 277° |
| 2026-05-06 18:41 | 53.69501 | 10.05062 | 24180 ft | 500 kts | 277° |
| 2026-05-06 18:41 | 53.69829 | 9.99221 | 24037 ft | 501 kts | 273° |
| 2026-05-06 18:41 | 53.70136 | 9.93358 | 23969 ft | 500 kts | 276° |
| 2026-05-06 18:41 | 53.70534 | 9.87540 | 23936 ft | 502 kts | 276° |
| 2026-05-06 18:42 | 53.70945 | 9.81673 | 23921 ft | 502 kts | 276° |
| 2026-05-06 18:42 | 53.71362 | 9.75826 | 23913 ft | 501 kts | 276° |
| 2026-05-06 18:42 | 53.71640 | 9.69962 | 23911 ft | 501 kts | 272° |
| 2026-05-06 18:42 | 53.71780 | 9.64081 | 23911 ft | 501 kts | 273° |
| 2026-05-06 18:43 | 53.72149 | 9.58234 | 23911 ft | 502 kts | 276° |
| 2026-05-06 18:43 | 53.72483 | 9.52361 | 23910 ft | 501 kts | 274° |
| 2026-05-06 18:43 | 53.72770 | 9.46515 | 23911 ft | 501 kts | 275° |
| 2026-05-06 18:43 | 53.73112 | 9.40644 | 23914 ft | 502 kts | 275° |
| 2026-05-06 18:44 | 53.73413 | 9.34806 | 23914 ft | 497 kts | 274° |
| 2026-05-06 18:44 | 53.73720 | 9.28976 | 23912 ft | 500 kts | 275° |
| 2026-05-06 18:44 | 53.74032 | 9.23135 | 23911 ft | 499 kts | 274° |
| 2026-05-06 18:44 | 53.74330 | 9.17299 | 23908 ft | 498 kts | 274° |
| 2026-05-06 18:45 | 53.74631 | 9.11460 | 23905 ft | 500 kts | 274° |
| 2026-05-06 18:45 | 53.74930 | 9.05617 | 23904 ft | 498 kts | 274° |
| 2026-05-06 18:45 | 53.75221 | 8.99798 | 23875 ft | 500 kts | 274° |
| 2026-05-06 18:45 | 53.75416 | 8.95893 | 23246 ft | 502 kts | 274° |
| 2026-05-06 18:46 | 53.75807 | 8.88037 | 21872 ft | 505 kts | 275° |
| 2026-05-06 18:46 | 53.76095 | 8.82213 | 20895 ft | 487 kts | 275° |
| 2026-05-06 18:46 | 53.76364 | 8.76735 | 20311 ft | 450 kts | 275° |
| 2026-05-06 18:46 | 53.76620 | 8.71438 | 20056 ft | 456 kts | 274° |
| 2026-05-06 18:47 | 53.76883 | 8.66021 | 18988 ft | 468 kts | 274° |
| 2026-05-06 18:47 | 53.77142 | 8.60702 | 17566 ft | 439 kts | 274° |
| 2026-05-06 18:47 | 53.77381 | 8.55718 | 16034 ft | 413 kts | 276° |
| 2026-05-06 18:47 | 53.77945 | 8.51078 | 14500 ft | 396 kts | 285° |
| 2026-05-06 18:48 | 53.78055 | 8.46553 | 12389 ft | 388 kts | 256° |
| 2026-05-06 18:48 | 53.76792 | 8.42529 | 10142 ft | 392 kts | 237° |
| 2026-05-06 18:48 | 53.75257 | 8.38693 | 7894 ft | 396 kts | 236° |
| 2026-05-06 18:48 | 53.73647 | 8.34934 | 5860 ft | 395 kts | 230° |
| 2026-05-06 18:49 | 53.71919 | 8.31354 | 4212 ft | 386 kts | 233° |
| 2026-05-06 18:49 | 53.70606 | 8.27377 | 3909 ft | 395 kts | 248° |
| 2026-05-06 18:49 | 53.69572 | 8.22965 | 3742 ft | 408 kts | 250° |
| 2026-05-06 18:49 | 53.69003 | 8.19932 | 3557 ft | 406 kts | 257° |
| 2026-05-06 18:50 | 53.68404 | 8.13795 | 3468 ft | 391 kts | 264° |
| 2026-05-06 18:50 | 53.67679 | 8.11059 | 3743 ft | 393 kts | 219° |
| 2026-05-06 18:50 | 53.64178 | 8.09603 | 3872 ft | 386 kts | 186° |
| 2026-05-06 18:50 | 53.62410 | 8.09020 | 3403 ft | 382 kts | 196° |
| 2026-05-06 18:51 | 53.60111 | 8.06970 | 2747 ft | 377 kts | 214° |
| 2026-05-06 18:51 | 53.57954 | 8.04352 | 2568 ft | 388 kts | 215° |
| 2026-05-06 18:51 | 53.55772 | 8.01676 | 2502 ft | 388 kts | 215° |
| 2026-05-06 18:51 | 53.52878 | 7.98111 | 2500 ft | 393 kts | 216° |
| 2026-05-06 18:52 | 53.51403 | 7.96199 | 2517 ft | 397 kts | 220° |
| 2026-05-06 18:52 | 53.49552 | 7.92824 | 2373 ft | 382 kts | 235° |
| 2026-05-06 18:52 | 53.48361 | 7.89023 | 2289 ft | 360 kts | 247° |
| 2026-05-06 18:52 | 53.47438 | 7.85207 | 2234 ft | 353 kts | 254° |
| 2026-05-06 18:53 | 53.46978 | 7.81191 | 2330 ft | 350 kts | 264° |
| 2026-05-06 18:53 | 53.46677 | 7.77107 | 2349 ft | 362 kts | 264° |
| 2026-05-06 18:53 | 53.46377 | 7.72796 | 2342 ft | 374 kts | 265° |
| 2026-05-06 18:53 | 53.46079 | 7.68453 | 2326 ft | 376 kts | 265° |
| 2026-05-06 18:54 | 53.45783 | 7.64083 | 2300 ft | 377 kts | 265° |
| 2026-05-06 18:54 | 53.45489 | 7.59699 | 2277 ft | 379 kts | 265° |
| 2026-05-06 18:54 | 53.45198 | 7.55286 | 2236 ft | 381 kts | 265° |
| 2026-05-06 18:54 | 53.44910 | 7.50895 | 2153 ft | 375 kts | 265° |
| 2026-05-06 18:55 | 53.45008 | 7.46646 | 1996 ft | 352 kts | 288° |
| 2026-05-06 18:55 | 53.46026 | 7.43103 | 2106 ft | 336 kts | 312° |
| 2026-05-06 18:55 | 53.47792 | 7.40640 | 2222 ft | 321 kts | 338° |
| 2026-05-06 18:55 | 53.49706 | 7.38737 | 2105 ft | 351 kts | 315° |
| 2026-05-06 18:56 | 53.50807 | 7.34969 | 1865 ft | 370 kts | 291° |
| 2026-05-06 18:56 | 53.51806 | 7.31011 | 1919 ft | 366 kts | 313° |
| 2026-05-06 18:56 | 53.53985 | 7.29376 | 2150 ft | 348 kts | 15° |
| 2026-05-06 18:56 | 53.55582 | 7.32108 | 2173 ft | 344 kts | 80° |
| 2026-05-06 18:57 | 53.54867 | 7.35423 | 1971 ft | 290 kts | 116° |
| 2026-05-06 18:57 | 53.54032 | 7.38201 | 1764 ft | 251 kts | 112° |
| 2026-05-06 18:57 | 53.53360 | 7.40835 | 1574 ft | 256 kts | 106° |
| 2026-05-06 18:57 | 53.52612 | 7.44031 | 1533 ft | 296 kts | 108° |
| 2026-05-06 18:58 | 53.52250 | 7.47373 | 1423 ft | 295 kts | 76° |
| 2026-05-06 18:58 | 53.52737 | 7.50786 | 1497 ft | 299 kts | 74° |
| 2026-05-06 18:58 | 53.53257 | 7.54160 | 1506 ft | 301 kts | 73° |
| 2026-05-06 18:58 | 53.53774 | 7.57583 | 1547 ft | 290 kts | 74° |
| 2026-05-06 18:59 | 53.54137 | 7.60811 | 1531 ft | 289 kts | 77° |
| 2026-05-06 18:59 | 53.54499 | 7.64156 | 1556 ft | 291 kts | 77° |
| 2026-05-06 18:59 | 53.55484 | 7.66408 | 1482 ft | 229 kts | 353° |
| 2026-05-06 18:59 | 53.56079 | 7.64574 | 1507 ft | 223 kts | 263° |
| 2026-05-06 19:00 | 53.55811 | 7.62319 | 1490 ft | 168 kts | 255° |
| 2026-05-06 19:00 | 53.54982 | 7.61150 | 955 ft | 169 kts | 154° |
| 2026-05-06 19:00 | 53.54285 | 7.62494 | 423 ft | 155 kts | 88° |
| 2026-05-06 19:00 | 53.54476 | 7.64252 | 138 ft | 153 kts | 73° |
| 2026-05-06 19:01 | 53.54692 | 7.65947 | 33 ft | 142 kts | 81° |
| 2026-05-06 19:01 | 53.54941 | 7.67825 | 763 ft | 171 kts | 47° |
| 2026-05-06 19:01 | 53.55872 | 7.67448 | 1202 ft | 192 kts | 284° |
| 2026-05-06 19:01 | 53.55641 | 7.65091 | 1451 ft | 213 kts | 258° |
| 2026-05-06 19:02 | 53.55237 | 7.62821 | 1422 ft | 175 kts | 226° |
| 2026-05-06 19:02 | 53.54366 | 7.63194 | 525 ft | 165 kts | 80° |
| 2026-05-06 19:02 | 53.54591 | 7.65138 | 59 ft | 160 kts | 73° |
| 2026-05-06 19:02 | 53.54789 | 7.66714 | 29 ft | 164 kts | 76° |
| 2026-05-06 19:03 | 53.55114 | 7.69156 | 820 ft | 266 kts | 79° |
| 2026-05-06 19:03 | 53.55273 | 7.72865 | 3424 ft | 389 kts | 97° |
| 2026-05-06 19:03 | 53.55119 | 7.77701 | 5229 ft | 435 kts | 77° |
| 2026-05-06 19:03 | 53.56436 | 7.82595 | 6742 ft | 476 kts | 46° |
| 2026-05-06 19:04 | 53.59219 | 7.85380 | 6906 ft | 472 kts | 21° |
| 2026-05-06 19:04 | 53.62278 | 7.87090 | 6948 ft | 456 kts | 18° |
| 2026-05-06 19:04 | 53.65209 | 7.88629 | 6977 ft | 415 kts | 18° |
| 2026-05-06 19:04 | 53.68027 | 7.89737 | 8414 ft | 444 kts | 360° |
| 2026-05-06 19:05 | 53.71045 | 7.87930 | 11400 ft | 494 kts | 320° |
| 2026-05-06 19:05 | 53.72793 | 7.82778 | 14899 ft | 525 kts | 275° |
| 2026-05-06 19:05 | 53.71035 | 7.79513 | 17995 ft | 382 kts | 135° |
| 2026-05-06 19:05 | 53.70303 | 7.83028 | 19202 ft | 362 kts | 104° |
| 2026-05-06 19:06 | 53.71171 | 7.86143 | 19962 ft | 300 kts | 344° |
| 2026-05-06 19:06 | 53.71943 | 7.83877 | 19699 ft | 240 kts | 231° |
| 2026-05-06 19:06 | 53.70566 | 7.83232 | 19576 ft | 214 kts | 158° |
| 2026-05-06 19:06 | 53.69460 | 7.84858 | 19776 ft | 221 kts | 112° |
| 2026-05-06 19:07 | 53.69674 | 7.87315 | 19306 ft | 227 kts | 26° |
| 2026-05-06 19:07 | 53.71189 | 7.87658 | 18894 ft | 240 kts | 5° |
| 2026-05-06 19:07 | 53.72590 | 7.89263 | 19091 ft | 269 kts | 83° |
| 2026-05-06 19:07 | 53.71786 | 7.91964 | 19058 ft | 295 kts | 158° |
| 2026-05-06 19:08 | 53.69680 | 7.93544 | 19575 ft | 371 kts | 150° |
| 2026-05-06 19:08 | 53.67576 | 7.97015 | 19127 ft | 479 kts | 127° |
| 2026-05-06 19:08 | 53.65390 | 8.02070 | 19397 ft | 584 kts | 127° |
| 2026-05-06 19:08 | 53.63217 | 8.08038 | 20093 ft | 590 kts | 118° |
| 2026-05-06 19:09 | 53.62195 | 8.14631 | 20343 ft | 586 kts | 89° |
| 2026-05-06 19:09 | 53.62584 | 8.21473 | 20660 ft | 590 kts | 83° |
| 2026-05-06 19:09 | 53.63093 | 8.28301 | 20843 ft | 587 kts | 83° |
| 2026-05-06 19:09 | 53.63608 | 8.35089 | 20893 ft | 588 kts | 83° |
| 2026-05-06 19:10 | 53.64127 | 8.41953 | 20903 ft | 587 kts | 83° |
| 2026-05-06 19:10 | 53.64656 | 8.48779 | 20883 ft | 587 kts | 80° |
| 2026-05-06 19:10 | 53.65739 | 8.55415 | 20758 ft | 588 kts | 72° |
| 2026-05-06 19:10 | 53.67018 | 8.61943 | 21009 ft | 585 kts | 70° |
| 2026-05-06 19:11 | 53.69197 | 8.67601 | 20775 ft | 580 kts | 37° |
| 2026-05-06 19:11 | 53.72821 | 8.69740 | 20431 ft | 547 kts | 1° |
| 2026-05-06 19:11 | 53.76553 | 8.69364 | 20085 ft | 530 kts | 347° |
| 2026-05-06 19:11 | 53.79826 | 8.66799 | 20047 ft | 523 kts | 319° |
| 2026-05-06 19:12 | 53.81463 | 8.62021 | 20319 ft | 424 kts | 269° |
| 2026-05-06 19:12 | 53.81031 | 8.57251 | 20294 ft | 416 kts | 256° |
| 2026-05-06 19:12 | 53.80246 | 8.52819 | 20222 ft | 381 kts | 251° |
| 2026-05-06 19:12 | 53.79305 | 8.48514 | 20259 ft | 397 kts | 249° |
| 2026-05-06 19:13 | 53.78182 | 8.44105 | 20516 ft | 416 kts | 246° |
| 2026-05-06 19:13 | 53.77091 | 8.39657 | 20733 ft | 407 kts | 248° |
| 2026-05-06 19:13 | 53.76048 | 8.35432 | 20902 ft | 389 kts | 248° |
| 2026-05-06 19:13 | 53.74989 | 8.31130 | 20943 ft | 400 kts | 248° |
| 2026-05-06 19:14 | 53.74007 | 8.26688 | 20906 ft | 407 kts | 250° |
| 2026-05-06 19:14 | 53.73073 | 8.22134 | 20921 ft | 407 kts | 251° |
| 2026-05-06 19:14 | 53.72150 | 8.17798 | 20902 ft | 378 kts | 250° |
| 2026-05-06 19:14 | 53.71234 | 8.13730 | 20920 ft | 366 kts | 249° |
| 2026-05-06 19:15 | 53.70310 | 8.09708 | 20920 ft | 369 kts | 249° |
| 2026-05-06 19:15 | 53.69394 | 8.05685 | 20931 ft | 366 kts | 249° |
| 2026-05-06 19:15 | 53.68496 | 8.01750 | 20900 ft | 354 kts | 249° |
| 2026-05-06 19:15 | 53.67607 | 7.97786 | 20872 ft | 372 kts | 250° |
| 2026-05-06 19:16 | 53.66695 | 7.93754 | 20905 ft | 367 kts | 249° |
| 2026-05-06 19:16 | 53.65783 | 7.89750 | 20879 ft | 360 kts | 249° |
| 2026-05-06 19:16 | 53.64861 | 7.85707 | 20880 ft | 366 kts | 249° |
| 2026-05-06 19:16 | 53.63662 | 7.82001 | 20828 ft | 375 kts | 232° |
| 2026-05-06 19:17 | 53.61819 | 7.79013 | 20857 ft | 370 kts | 216° |
| 2026-05-06 19:17 | 53.59548 | 7.77094 | 20866 ft | 358 kts | 198° |
| 2026-05-06 19:17 | 53.57026 | 7.76351 | 20886 ft | 374 kts | 183° |
| 2026-05-06 19:17 | 53.54411 | 7.76904 | 20829 ft | 377 kts | 168° |
| 2026-05-06 19:18 | 53.52007 | 7.78766 | 20854 ft | 382 kts | 146° |
| 2026-05-06 19:18 | 53.50048 | 7.81787 | 20898 ft | 380 kts | 128° |
| 2026-05-06 19:18 | 53.48695 | 7.85731 | 20887 ft | 398 kts | 110° |
| 2026-05-06 19:18 | 53.48138 | 7.90134 | 20875 ft | 380 kts | 92° |
| 2026-05-06 19:19 | 53.48405 | 7.94646 | 20920 ft | 390 kts | 73° |
| 2026-05-06 19:19 | 53.49361 | 7.98913 | 20892 ft | 411 kts | 66° |
| 2026-05-06 19:19 | 53.50452 | 8.03139 | 20859 ft | 379 kts | 69° |
| 2026-05-06 19:19 | 53.51472 | 8.07415 | 20907 ft | 390 kts | 68° |
| 2026-05-06 19:20 | 53.52477 | 8.11732 | 20932 ft | 399 kts | 69° |
| 2026-05-06 19:20 | 53.53489 | 8.16072 | 20920 ft | 403 kts | 68° |
| 2026-05-06 19:20 | 53.54391 | 8.20319 | 20904 ft | 381 kts | 69° |
| 2026-05-06 19:20 | 53.55308 | 8.24612 | 21888 ft | 414 kts | 72° |
| 2026-05-06 19:21 | 53.56047 | 8.29560 | 22905 ft | 453 kts | 78° |
| 2026-05-06 19:21 | 53.56868 | 8.34885 | 23820 ft | 488 kts | 73° |
| 2026-05-06 19:21 | 53.57981 | 8.40301 | 24097 ft | 481 kts | 64° |
| 2026-05-06 19:21 | 53.59675 | 8.45042 | 23985 ft | 462 kts | 51° |
| 2026-05-06 19:22 | 53.61923 | 8.48827 | 23734 ft | 453 kts | 35° |
| 2026-05-06 19:22 | 53.64655 | 8.51318 | 23690 ft | 443 kts | 17° |
| 2026-05-06 19:22 | 53.67660 | 8.51965 | 23883 ft | 441 kts | 352° |
| 2026-05-06 19:22 | 53.70690 | 8.51024 | 23985 ft | 442 kts | 345° |
| 2026-05-06 19:23 | 53.73672 | 8.49805 | 23994 ft | 445 kts | 344° |
| 2026-05-06 19:23 | 53.76721 | 8.48513 | 24015 ft | 459 kts | 344° |
| 2026-05-06 19:23 | 53.79865 | 8.47178 | 24050 ft | 474 kts | 344° |
| 2026-05-06 19:23 | 53.83140 | 8.45950 | 24087 ft | 489 kts | 354° |
| 2026-05-06 19:24 | 53.86343 | 8.47530 | 24854 ft | 496 kts | 37° |
| 2026-05-06 19:24 | 53.88535 | 8.52092 | 26199 ft | 511 kts | 64° |
| 2026-05-06 19:24 | 53.89485 | 8.57637 | 27436 ft | 508 kts | 86° |
| 2026-05-06 19:24 | 53.89016 | 8.63488 | 28272 ft | 504 kts | 110° |
| 2026-05-06 19:25 | 53.88236 | 8.69348 | 28756 ft | 511 kts | 98° |
| 2026-05-06 19:25 | 53.87812 | 8.75312 | 28888 ft | 510 kts | 98° |
| 2026-05-06 19:25 | 53.87515 | 8.81245 | 29432 ft | 506 kts | 94° |
| 2026-05-06 19:25 | 53.87409 | 8.87257 | 29704 ft | 510 kts | 92° |
| 2026-05-06 19:26 | 53.87379 | 8.93244 | 29807 ft | 507 kts | 91° |
| 2026-05-06 19:26 | 53.87390 | 9.05151 | 29874 ft | 504 kts | 91° |
| 2026-05-06 19:27 | 53.87420 | 9.17044 | 29894 ft | 506 kts | 91° |
| 2026-05-06 19:27 | 53.87236 | 9.28909 | 29900 ft | 503 kts | 93° |
| 2026-05-06 19:28 | 53.87082 | 9.40796 | 29906 ft | 505 kts | 92° |
| 2026-05-06 19:28 | 53.86973 | 9.52659 | 29917 ft | 501 kts | 92° |
| 2026-05-06 19:29 | 53.86867 | 9.64482 | 29912 ft | 503 kts | 92° |
| 2026-05-06 19:29 | 53.86699 | 9.76307 | 29912 ft | 501 kts | 93° |
| 2026-05-06 19:30 | 53.86485 | 9.88133 | 29913 ft | 503 kts | 93° |
| 2026-05-06 19:30 | 53.86259 | 9.99951 | 29917 ft | 501 kts | 93° |
| 2026-05-06 19:31 | 53.86067 | 10.09777 | 29915 ft | 503 kts | 93° |
| 2026-05-06 19:31 | 53.85716 | 10.27479 | 29918 ft | 503 kts | 93° |
| 2026-05-06 19:32 | 53.85476 | 10.39292 | 29918 ft | 501 kts | 93° |
| 2026-05-06 19:32 | 53.85232 | 10.51124 | 29919 ft | 503 kts | 93° |
| 2026-05-06 19:33 | 53.84971 | 10.62923 | 29917 ft | 501 kts | 93° |
| 2026-05-06 19:33 | 53.84699 | 10.74708 | 29917 ft | 501 kts | 93° |
| 2026-05-06 19:34 | 53.84421 | 10.86473 | 29919 ft | 501 kts | 93° |
| 2026-05-06 19:34 | 53.84136 | 10.98252 | 29916 ft | 501 kts | 93° |
| 2026-05-06 19:35 | 53.83848 | 11.10035 | 29914 ft | 501 kts | 93° |
| 2026-05-06 19:35 | 53.83544 | 11.21842 | 29914 ft | 500 kts | 93° |
| 2026-05-06 19:36 | 53.83232 | 11.33676 | 28949 ft | 498 kts | 93° |
| 2026-05-06 19:36 | 53.83081 | 11.39381 | 28100 ft | 472 kts | 94° |
| 2026-05-06 19:36 | 53.83141 | 11.44756 | 27297 ft | 472 kts | 85° |
| 2026-05-06 19:37 | 53.83564 | 11.50579 | 26515 ft | 522 kts | 82° |
| 2026-05-06 19:37 | 53.83955 | 11.56655 | 25765 ft | 509 kts | 92° |
| 2026-05-06 19:37 | 53.83366 | 11.62495 | 25045 ft | 502 kts | 111° |
| 2026-05-06 19:37 | 53.81731 | 11.67615 | 24341 ft | 492 kts | 130° |
| 2026-05-06 19:38 | 53.79350 | 11.71715 | 23662 ft | 487 kts | 140° |
| 2026-05-06 19:38 | 53.76766 | 11.75359 | 22868 ft | 480 kts | 143° |
| 2026-05-06 19:38 | 53.74182 | 11.78824 | 21593 ft | 470 kts | 143° |
| 2026-05-06 19:38 | 53.71627 | 11.82205 | 19703 ft | 463 kts | 145° |
| 2026-05-06 19:39 | 53.69111 | 11.85429 | 17931 ft | 443 kts | 145° |
| 2026-05-06 19:39 | 53.66690 | 11.88541 | 16131 ft | 442 kts | 145° |
| 2026-05-06 19:39 | 53.64261 | 11.91651 | 14488 ft | 433 kts | 145° |
| 2026-05-06 19:39 | 53.61889 | 11.94681 | 12910 ft | 419 kts | 144° |
| 2026-05-06 19:40 | 53.59624 | 11.97579 | 11393 ft | 397 kts | 144° |
| 2026-05-06 19:40 | 53.57337 | 11.99907 | 10105 ft | 372 kts | 180° |
| 2026-05-06 19:40 | 53.55086 | 11.97734 | 9307 ft | 405 kts | 238° |
| 2026-05-06 19:40 | 53.54897 | 11.93249 | 8649 ft | 409 kts | 305° |
| 2026-05-06 19:41 | 53.56904 | 11.89587 | 7693 ft | 450 kts | 335° |
| 2026-05-06 19:41 | 53.59714 | 11.89541 | 7268 ft | 381 kts | 26° |
| 2026-05-06 19:41 | 53.61734 | 11.91998 | 6251 ft | 341 kts | 46° |
| 2026-05-06 19:41 | 53.63679 | 11.93987 | 5953 ft | 341 kts | 9° |
| 2026-05-06 19:42 | 53.65884 | 11.93783 | 5969 ft | 334 kts | 330° |
| 2026-05-06 19:42 | 53.67373 | 11.90183 | 5704 ft | 400 kts | 311° |
| 2026-05-06 19:42 | 53.69716 | 11.89789 | 5684 ft | 377 kts | 36° |
| 2026-05-06 19:42 | 53.71797 | 11.92537 | 5492 ft | 362 kts | 39° |
| 2026-05-06 19:43 | 53.73569 | 11.95162 | 5171 ft | 325 kts | 42° |
| 2026-05-06 19:43 | 53.75589 | 11.96893 | 4775 ft | 325 kts | 351° |
| 2026-05-06 19:43 | 53.77280 | 11.94948 | 4131 ft | 294 kts | 322° |
| 2026-05-06 19:43 | 53.79251 | 11.93077 | 3602 ft | 354 kts | 339° |
| 2026-05-06 19:44 | 53.81510 | 11.91562 | 3259 ft | 336 kts | 341° |
| 2026-05-06 19:44 | 53.83653 | 11.90179 | 2938 ft | 313 kts | 342° |
| 2026-05-06 19:44 | 53.85688 | 11.88876 | 2927 ft | 314 kts | 344° |
| 2026-05-06 19:44 | 53.87785 | 11.87953 | 3021 ft | 307 kts | 350° |
| 2026-05-06 19:45 | 53.89896 | 11.87342 | 3013 ft | 301 kts | 357° |
| 2026-05-06 19:45 | 53.92015 | 11.87059 | 3028 ft | 303 kts | 0° |
| 2026-05-06 19:45 | 53.93804 | 11.88252 | 3080 ft | 294 kts | 60° |
| 2026-05-06 19:45 | 53.94276 | 11.91592 | 3021 ft | 292 kts | 95° |
| 2026-05-06 19:46 | 53.94032 | 11.95026 | 2993 ft | 291 kts | 96° |
| 2026-05-06 19:46 | 53.93783 | 11.98340 | 2645 ft | 270 kts | 95° |
| 2026-05-06 19:46 | 53.93619 | 12.01367 | 2359 ft | 241 kts | 95° |
| 2026-05-06 19:46 | 53.93481 | 12.03907 | 2109 ft | 194 kts | 94° |
| 2026-05-06 19:47 | 53.93353 | 12.06211 | 1882 ft | 196 kts | 95° |
| 2026-05-06 19:47 | 53.93207 | 12.08606 | 1814 ft | 200 kts | 95° |
| 2026-05-06 19:47 | 53.93071 | 12.10796 | 1785 ft | 176 kts | 95° |
| 2026-05-06 19:47 | 53.92955 | 12.12777 | 1653 ft | 165 kts | 95° |
| 2026-05-06 19:48 | 53.92832 | 12.14653 | 1453 ft | 157 kts | 95° |
| 2026-05-06 19:48 | 53.92692 | 12.16530 | 1260 ft | 151 kts | 95° |
| 2026-05-06 19:48 | 53.92561 | 12.18305 | 1086 ft | 160 kts | 94° |
| 2026-05-06 19:48 | 53.92432 | 12.20071 | 866 ft | 134 kts | 96° |
| 2026-05-06 19:49 | 53.92294 | 12.21765 | 647 ft | 152 kts | 95° |
| 2026-05-06 19:49 | 53.92152 | 12.23587 | 472 ft | 155 kts | 94° |
| 2026-05-06 19:49 | 53.92014 | 12.25374 | 264 ft | 140 kts | 96° |
| 2026-05-06 19:49 | 53.91881 | 12.27002 | 145 ft | 127 kts | 98° |
| 2026-05-06 19:50 | 53.91786 | 12.28228 | 147 ft | 82 kts | 98° |
| 2026-05-06 19:50 | 53.91741 | 12.28766 | 144 ft | 30 kts | 100° |
| 2026-05-06 19:50 | 53.91715 | 12.29065 | 144 ft | 18 kts | 96° |
| 2026-05-06 19:50 | 53.91742 | 12.29171 | 145 ft | 8 kts | 13° |
| 2026-05-06 19:51 | 53.91828 | 12.29192 | 146 ft | 13 kts | 8° |
| 2026-05-06 19:51 | 53.91925 | 12.29215 | 146 ft | 21 kts | 8° |
| 2026-05-06 19:51 | 53.92010 | 12.29193 | 146 ft | 10 kts | 282° |
| 2026-05-06 19:51 | 53.92024 | 12.29043 | 146 ft | 15 kts | 276° |
| 2026-05-06 19:52 | 53.92040 | 12.28853 | 146 ft | 17 kts | 287° |
| 2026-05-06 19:52 | 53.92061 | 12.28648 | 146 ft | 18 kts | 278° |
| 2026-05-06 19:52 | 53.92077 | 12.28427 | 146 ft | 20 kts | 278° |
| 2026-05-06 19:52 | 53.92096 | 12.28193 | 146 ft | 20 kts | 278° |
| 2026-05-06 19:53 | 53.92115 | 12.27956 | 145 ft | 20 kts | 278° |
| 2026-05-06 19:53 | 53.92134 | 12.27720 | 145 ft | 20 kts | 277° |
| 2026-05-06 19:53 | 53.92153 | 12.27484 | 145 ft | 20 kts | 278° |
| 2026-05-06 19:53 | 53.92171 | 12.27246 | 146 ft | 20 kts | 278° |
| 2026-05-06 19:54 | 53.92185 | 12.27009 | 146 ft | 20 kts | 278° |
| 2026-05-06 19:54 | 53.92203 | 12.26780 | 145 ft | 11 kts | 281° |
| 2026-05-06 19:54 | 53.92233 | 12.26732 | 145 ft | 6 kts | 9° |
| 2026-05-06 19:54 | 53.92251 | 12.26755 | 145 ft | 2 kts | 97° |
| 2026-05-06 19:55 | 53.92250 | 12.26762 | 145 ft | 0 kts | 98° |